createdAt,value
2022-12-01T00:01:13.137Z,102296.72
2022-12-01T00:03:40.349Z,102305.06
2022-12-01T00:06:13.212Z,102295.03
2022-12-01T00:08:39.886Z,102287.25
2022-12-01T00:11:14.381Z,102307.34
2022-12-01T00:13:41.030Z,102315.16
2022-12-01T00:16:16.052Z,102305.06
2022-12-01T00:18:43.237Z,102305.41
2022-12-01T00:21:21.740Z,102311.25
2022-12-01T00:23:51.380Z,102300.34
2022-12-01T00:26:19.702Z,102301.81
2022-12-01T00:28:54.450Z,102315.16
2022-12-01T00:31:21.969Z,102306.72
2022-12-01T00:33:48.941Z,102277.84
2022-12-01T00:36:16.042Z,102298.38
2022-12-01T00:38:42.759Z,102298.38
2022-12-01T00:41:09.789Z,102291.59
2022-12-01T00:43:36.827Z,102270.88
2022-12-01T00:46:04.315Z,102284.88
2022-12-01T00:48:31.418Z,102300.97
2022-12-01T00:50:58.296Z,102285.22
2022-12-01T00:53:25.124Z,102307.19
2022-12-01T00:55:54.149Z,102299.69
2022-12-01T00:58:24.683Z,102288.66
2022-12-01T01:01:00.783Z,102310.53
2022-12-01T01:03:28.311Z,102299.63
2022-12-01T01:05:55.046Z,102292.94
2022-12-01T01:08:21.935Z,102292.09
2022-12-01T01:10:51.906Z,102297.84
2022-12-01T01:13:27.841Z,102281.91
2022-12-01T01:16:05.469Z,102323.50
2022-12-01T01:18:33.014Z,102316.19
2022-12-01T01:21:03.340Z,102312.22
2022-12-01T01:23:30.417Z,102307.88
2022-12-01T01:26:06.418Z,102323.03
2022-12-01T01:28:33.239Z,102313.88
2022-12-01T01:31:00.208Z,102308.22
2022-12-01T01:33:26.957Z,102319.72
2022-12-01T01:35:53.682Z,102326.47
2022-12-01T01:38:20.335Z,102333.44
2022-12-01T01:40:47.597Z,102328.41
2022-12-01T01:43:19.076Z,102332.72
2022-12-01T01:45:46.244Z,102314.25
2022-12-01T01:48:13.822Z,102332.50
2022-12-01T01:50:40.813Z,102327.41
2022-12-01T01:53:12.797Z,102327.41
2022-12-01T01:55:39.799Z,102329.00
2022-12-01T01:58:10.866Z,102315.72
2022-12-01T02:00:42.069Z,102320.63
2022-12-01T02:03:12.575Z,102323.44
2022-12-01T02:05:40.164Z,102334.47
2022-12-01T02:08:12.520Z,102324.38
2022-12-01T02:11:00.829Z,102328.34
2022-12-01T02:13:33.247Z,102327.31
2022-12-01T02:16:05.718Z,102328.41
2022-12-01T02:18:59.397Z,102321.03
2022-12-01T02:21:28.935Z,102326.69
2022-12-01T02:23:55.558Z,102332.72
2022-12-01T02:26:31.156Z,102326.69
2022-12-01T02:29:27.742Z,102325.38
2022-12-01T02:32:27.307Z,102331.13
2022-12-01T02:34:59.280Z,102333.81
2022-12-01T02:37:45.371Z,102306.31
2022-12-01T02:40:25.388Z,102324.75
2022-12-01T02:43:06.163Z,102327.34
2022-12-01T02:45:35.720Z,102335.66
2022-12-01T02:48:05.389Z,102313.06
2022-12-01T02:50:35.276Z,102311.41
2022-12-01T02:53:04.543Z,102324.00
2022-12-01T02:55:32.839Z,102330.69
2022-12-01T02:57:59.558Z,102312.69
2022-12-01T03:00:26.387Z,102328.81
2022-12-01T03:02:53.108Z,102327.16
2022-12-01T03:05:28.363Z,102320.19
2022-12-01T03:08:36.543Z,102326.22
2022-12-01T03:11:03.718Z,102328.91
2022-12-01T03:13:46.503Z,102321.13
2022-12-01T03:16:25.156Z,102329.38
2022-12-01T03:19:04.283Z,102320.31
2022-12-01T03:21:30.930Z,102321.97
2022-12-01T03:24:11.825Z,102320.66
2022-12-01T03:26:42.055Z,102318.06
2022-12-01T03:29:13.691Z,102323.81
2022-12-01T03:31:46.201Z,102311.41
2022-12-01T03:34:18.138Z,102302.88
2022-12-01T03:36:56.210Z,102312.97
2022-12-01T03:39:29.737Z,102329.38
2022-12-01T03:42:05.746Z,102319.00
2022-12-01T03:44:47.947Z,102304.72
2022-12-01T03:47:21.060Z,102325.03
2022-12-01T03:49:51.576Z,102323.91
2022-12-01T03:52:40.328Z,102320.47
2022-12-01T03:55:22.749Z,102323.06
2022-12-01T03:58:05.547Z,102323.81
2022-12-01T04:00:33.245Z,102326.88
2022-12-01T04:03:05.174Z,102333.56
2022-12-01T04:05:33.959Z,102331.22
2022-12-01T04:08:01.222Z,102325.19
2022-12-01T04:10:28.075Z,102338.09
2022-12-01T04:12:59.299Z,102321.97
2022-12-01T04:15:26.890Z,102339.75
2022-12-01T04:17:53.713Z,102330.59
2022-12-01T04:20:20.617Z,102343.47
2022-12-01T04:22:48.125Z,102345.97
2022-12-01T04:25:15.050Z,102351.97
2022-12-01T04:27:42.007Z,102335.03
2022-12-01T04:30:09.488Z,102336.97
2022-12-01T04:32:40.847Z,102347.06
2022-12-01T04:35:09.023Z,102338.28
2022-12-01T04:37:36.069Z,102339.28
2022-12-01T04:40:03.185Z,102333.25
2022-12-01T04:42:30.126Z,102334.19
2022-12-01T04:44:56.816Z,102328.34
2022-12-01T04:47:23.586Z,102337.56
2022-12-01T04:49:50.398Z,102339.22
2022-12-01T04:52:17.360Z,102341.81
2022-12-01T04:54:43.984Z,102328.91
2022-12-01T04:57:10.595Z,102332.16
2022-12-01T04:59:37.387Z,102321.22
2022-12-01T05:02:04.377Z,102335.78
2022-12-01T05:04:32.626Z,102322.50
2022-12-01T05:06:59.377Z,102339.22
2022-12-01T05:09:26.063Z,102330.22
2022-12-01T05:11:52.709Z,102335.22
2022-12-01T05:14:19.470Z,102328.47
2022-12-01T05:16:48.281Z,102340.03
2022-12-01T05:19:33.420Z,102334.38
2022-12-01T05:22:00.040Z,102330.41
2022-12-01T05:24:26.706Z,102329.69
2022-12-01T05:26:53.484Z,102329.84
2022-12-01T05:29:20.203Z,102339.28
2022-12-01T05:31:47.261Z,102341.34
2022-12-01T05:34:14.504Z,102343.09
2022-12-01T05:36:42.109Z,102340.94
2022-12-01T05:39:08.785Z,102348.56
2022-12-01T05:41:35.621Z,102337.63
2022-12-01T05:44:02.368Z,102353.56
2022-12-01T05:46:41.584Z,102335.31
2022-12-01T05:49:08.237Z,102322.78
2022-12-01T05:51:35.021Z,102338.63
2022-12-01T05:54:03.191Z,102339.56
2022-12-01T05:56:29.888Z,102320.28
2022-12-01T05:58:56.626Z,102319.81
2022-12-01T06:01:23.468Z,102342.25
2022-12-01T06:03:50.192Z,102358.38
2022-12-01T06:06:17.017Z,102344.59
2022-12-01T06:08:43.784Z,102347.06
2022-12-01T06:11:10.424Z,102346.34
2022-12-01T06:13:37.073Z,102355.63
2022-12-01T06:16:06.171Z,102341.34
2022-12-01T06:18:35.659Z,102369.41
2022-12-01T06:21:02.756Z,102347.63
2022-12-01T06:23:30.725Z,102354.59
2022-12-01T06:25:58.354Z,102352.44
2022-12-01T06:28:59.265Z,102359.94
2022-12-01T06:31:25.950Z,102346.53
2022-12-01T06:33:52.645Z,102354.13
2022-12-01T06:36:19.437Z,102364.03
2022-12-01T06:38:46.085Z,102363.13
2022-12-01T06:41:12.722Z,102369.13
2022-12-01T06:43:39.474Z,102367.47
2022-12-01T06:46:06.748Z,102372.75
2022-12-01T06:48:34.494Z,102370.25
2022-12-01T06:51:02.585Z,102367.94
2022-12-01T06:53:29.852Z,102370.31
2022-12-01T06:56:01.125Z,102356.13
2022-12-01T06:58:28.228Z,102378.09
2022-12-01T07:00:55.325Z,102378.09
2022-12-01T07:03:22.062Z,102374.78
2022-12-01T07:05:58.798Z,102382.38
2022-12-01T07:08:26.947Z,102385.88
2022-12-01T07:10:57.766Z,102389.25
2022-12-01T07:13:28.727Z,102384.44
2022-12-01T07:15:58.352Z,102388.84
2022-12-01T07:18:25.131Z,102388.69
2022-12-01T07:20:51.729Z,102384.06
2022-12-01T07:23:18.445Z,102387.75
2022-12-01T07:25:45.245Z,102385.25
2022-12-01T07:28:12.031Z,102383.66
2022-12-01T07:30:39.082Z,102382.06
2022-12-01T07:33:05.873Z,102382.72
2022-12-01T07:35:32.487Z,102391.06
2022-12-01T07:37:59.146Z,102392.94
2022-12-01T07:40:26.093Z,102389.63
2022-12-01T07:42:52.738Z,102374.56
2022-12-01T07:45:19.349Z,102405.81
2022-12-01T07:47:46.138Z,102400.00
2022-12-01T07:50:12.959Z,102355.28
2022-12-01T07:52:39.624Z,102376.03
2022-12-01T07:55:06.929Z,102367.78
2022-12-01T07:57:38.580Z,102376.31
2022-12-01T08:00:06.124Z,102374.09
2022-12-01T08:02:32.895Z,102409.50
2022-12-01T08:04:59.905Z,102406.06
2022-12-01T08:07:29.839Z,102398.84
2022-12-01T08:09:56.866Z,102408.88
2022-12-01T08:12:23.545Z,102406.56
2022-12-01T08:14:50.150Z,102399.59
2022-12-01T08:17:16.817Z,102412.19
2022-12-01T08:19:43.518Z,102420.53
2022-12-01T08:22:10.163Z,102405.34
2022-12-01T08:24:36.907Z,102418.22
2022-12-01T08:27:03.649Z,102421.56
2022-12-01T08:29:30.381Z,102414.97
2022-12-01T08:32:00.156Z,102425.72
2022-12-01T08:34:26.823Z,102428.31
2022-12-01T08:36:53.493Z,102426.84
2022-12-01T08:39:20.254Z,102424.91
2022-12-01T08:41:46.947Z,102424.59
2022-12-01T08:44:13.807Z,102440.19
2022-12-01T08:46:42.909Z,102432.56
2022-12-01T08:49:09.661Z,102364.22
2022-12-01T08:51:37.196Z,102347.66
2022-12-01T08:54:04.375Z,102365.66
2022-12-01T08:56:50.620Z,102319.75
2022-12-01T08:59:39.158Z,102354.53
2022-12-01T09:04:55.843Z,102336.44
2022-12-01T09:07:26.389Z,102329.50
2022-12-01T09:09:53.711Z,102418.88
2022-12-01T09:12:20.391Z,102440.75
2022-12-01T09:14:49.969Z,102440.59
2022-12-01T09:17:17.725Z,102422.19
2022-12-01T09:38:32.583Z,102421.31
2022-12-01T09:41:31.213Z,102455.53
2022-12-01T09:44:17.391Z,102449.50
2022-12-01T09:46:50.085Z,102446.44
2022-12-01T09:49:41.802Z,102401.94
2022-12-01T09:52:14.232Z,102453.66
2022-12-01T09:54:41.335Z,102420.22
2022-12-01T09:57:25.980Z,102435.97
2022-12-01T09:59:53.697Z,102435.41
2022-12-01T10:02:26.424Z,102426.72
2022-12-01T10:04:56.547Z,102443.56
2022-12-01T10:07:31.445Z,102443.94
2022-12-01T10:10:01.233Z,102430.41
2022-12-01T10:12:34.118Z,102415.22
2022-12-01T10:15:39.425Z,102430.41
2022-12-01T10:18:06.335Z,102438.03
2022-12-01T10:21:26.359Z,102427.06
2022-12-01T10:24:01.963Z,102434.50
2022-12-01T10:26:37.596Z,102433.47
2022-12-01T10:29:13.770Z,102418.53
2022-12-01T10:31:52.977Z,102429.84
2022-12-01T10:34:28.644Z,102399.00
2022-12-01T10:36:59.305Z,102408.25
2022-12-01T10:39:35.171Z,102383.22
2022-12-01T10:42:07.335Z,102420.13
2022-12-01T10:44:35.482Z,102407.78
2022-12-01T10:47:02.651Z,102414.44
2022-12-01T10:49:39.037Z,102407.69
2022-12-01T10:52:06.917Z,102422.16
2022-12-01T10:54:37.554Z,102428.19
2022-12-01T10:57:06.386Z,102415.22
2022-12-01T11:00:06.194Z,102381.53
2022-12-01T11:02:33.674Z,102354.56
2022-12-01T11:31:53.244Z,102345.13
2022-12-01T11:36:59.841Z,102375.34
2022-12-01T11:39:36.938Z,102378.97
2022-12-01T11:42:07.458Z,102298.06
2022-12-01T11:44:51.009Z,102381.81
2022-12-01T11:47:23.532Z,102411.22
2022-12-01T11:50:02.746Z,102410.00
2022-12-01T11:52:36.816Z,102406.47
2022-12-01T11:55:12.464Z,102399.97
2022-12-01T11:57:42.860Z,102395.91
2022-12-01T12:11:08.741Z,102399.88
2022-12-01T12:27:27.258Z,102338.25
2022-12-01T12:59:22.911Z,102359.47
2022-12-01T13:02:21.711Z,102337.63
2022-12-01T13:04:54.311Z,102366.78
2022-12-01T13:07:20.987Z,102364.47
2022-12-01T13:09:53.657Z,102346.13
2022-12-01T13:12:30.828Z,102351.13
2022-12-01T13:15:03.492Z,102346.78
2022-12-01T13:17:43.897Z,102348.06
2022-12-01T13:20:15.647Z,102338.69
2022-12-01T13:22:42.500Z,102329.34
2022-12-01T13:25:33.174Z,102342.31
2022-12-01T13:28:02.891Z,102337.28
2022-12-01T13:30:34.167Z,102331.44
2022-12-01T13:33:06.876Z,102329.69
2022-12-01T13:35:36.718Z,102340.00
2022-12-01T13:38:22.016Z,102333.50
2022-12-01T13:43:37.743Z,102340.56
2022-12-01T13:46:04.731Z,102261.47
2022-12-01T13:48:37.393Z,102334.56
2022-12-01T13:51:05.155Z,102299.63
2022-12-01T13:53:33.301Z,102332.69
2022-12-01T13:56:02.682Z,102338.88
2022-12-01T13:58:35.366Z,102337.16
2022-12-01T14:19:53.651Z,102345.97
2022-12-01T14:22:38.223Z,102357.72
2022-12-01T14:25:28.596Z,102356.97
2022-12-01T14:27:57.787Z,102275.47
2022-12-01T14:30:44.510Z,102361.81
2022-12-01T14:33:42.009Z,102361.63
2022-12-01T14:36:23.597Z,102356.53
2022-12-01T14:39:11.131Z,102345.22
2022-12-01T14:41:45.677Z,102362.84
2022-12-01T14:44:29.267Z,102346.78
2022-12-01T14:47:10.984Z,102308.63
2022-12-01T14:49:39.901Z,102348.84
2022-12-01T14:52:14.571Z,102363.22
2022-12-01T14:54:47.657Z,102363.84
2022-12-01T14:57:19.081Z,102343.00
2022-12-01T14:59:45.882Z,102307.63
2022-12-01T15:40:11.968Z,102329.25
2022-12-01T15:42:43.133Z,102349.13
2022-12-01T15:45:12.833Z,102350.94
2022-12-01T15:47:45.113Z,102344.09
2022-12-01T15:50:39.732Z,102336.03
2022-12-01T15:53:26.179Z,102342.53
2022-12-01T15:55:58.821Z,102353.19
2022-12-01T15:58:30.422Z,102359.38
2022-12-01T16:27:57.550Z,102365.31
2022-12-01T16:35:40.961Z,102278.72
2022-12-01T18:13:12.613Z,102415.31
2022-12-01T18:15:59.065Z,102235.72
2022-12-01T19:21:28.630Z,102249.63
2022-12-01T19:23:53.818Z,102313.75
2022-12-01T19:26:23.254Z,102200.97
2022-12-01T19:28:50.188Z,102319.28
2022-12-01T19:31:25.094Z,102389.53
2022-12-01T19:33:53.867Z,102402.81
2022-12-01T19:36:26.140Z,102375.97
2022-12-01T19:38:53.632Z,102374.66
2022-12-01T19:57:27.489Z,102297.72
2022-12-01T20:02:35.526Z,102227.84
2022-12-01T20:05:02.350Z,102190.72
2022-12-01T20:07:32.125Z,102329.63
2022-12-01T20:09:59.183Z,102404.13
2022-12-01T20:12:28.833Z,102403.22
2022-12-01T20:14:56.398Z,102307.41
2022-12-01T20:17:23.278Z,102246.31
2022-12-01T20:41:22.052Z,102421.44
2022-12-01T20:43:48.758Z,102402.88
2022-12-01T20:46:16.085Z,102395.13
2022-12-01T20:48:43.418Z,102403.63
2022-12-01T20:51:13.096Z,102391.69
2022-12-01T20:53:42.410Z,102395.94
2022-12-01T20:56:14.729Z,102406.06
2022-12-01T20:58:41.707Z,102400.97
2022-12-01T21:01:17.202Z,102403.56
2022-12-01T21:03:45.995Z,102371.88
2022-12-01T21:06:14.960Z,102339.16
2022-12-01T21:22:46.245Z,102209.13
2022-12-01T21:25:51.201Z,102203.13
2022-12-01T21:31:53.007Z,102200.38
2022-12-01T21:45:00.671Z,102263.38
2022-12-01T21:52:08.540Z,102217.84
2022-12-01T21:55:35.315Z,102359.09
2022-12-01T21:58:27.278Z,102244.28
2022-12-01T23:21:56.978Z,102162.66
2022-12-01T23:24:33.685Z,102165.88
2022-12-01T23:27:10.080Z,102331.81
2022-12-01T23:30:04.202Z,102312.03
2022-12-01T23:32:34.893Z,102170.97
2022-12-01T23:35:28.391Z,102304.28
2022-12-01T23:38:29.634Z,102182.16
